Terminal Aerodrome Forecast
Issued by NWS

Home | Current Version | Previous Version | Text Only | Print | Product List | Glossary On
Versions: 1 2 3 4 5 6 7 8 9 10 11 12 13 14 15 16
000
FTUS46 KLOX 282300 RRA
TAFSBP
TAF
KSBP 282351Z 2900/2924 31012G20KT P6SM SKC
     FM290300 31008KT P6SM SKC
     FM290600 VRB03KT 6SM BR OVC007
     FM291100 00000KT 4SM BR OVC004
     FM291500 VRB03KT 6SM BR BKN007 BKN250
     FM291630 31006KT P6SM SCT250
     FM292000 31015G20KT P6SM FEW130 SCT250=

USA.gov is the U.S. government's official web portal to all federal, state and local government web resources and services.